Time;durP1;ratioP1;P1;durP2;ratioP2;P2;SDS_P1;SDS_P2;PMS_P1;PMS_P2;Temp;Humidity;BMP_temperature;BMP_pressure;BME280_temperature;BME280_humidity;BME280_pressure;Samples;Min_cycle;Max_cycle;Signal;HPM_P1;HPM_P2
2022/06/09 00:03:18;;;;;;;18.95;9.15;;;;;;;14.70;89.29;100736.16;10419559;28;20069;-76
2022/06/09 00:08:20;;;;;;;20.08;10.65;;;;;;;14.65;89.82;100735.22;10418666;28;20137;-76
2022/06/09 00:13:22;;;;;;;28.35;9.32;;;;;;;14.75;90.08;100737.06;10417134;28;20099;-75
2022/06/09 00:18:24;;;;;;;20.55;10.15;;;;;;;14.58;90.63;100745.56;10417845;28;20130;-76
2022/06/09 00:23:25;;;;;;;20.35;9.32;;;;;;;14.60;90.02;100750.75;10418224;28;20060;-76
2022/06/09 00:28:28;;;;;;;18.38;8.98;;;;;;;14.72;89.71;100747.38;10417803;28;20060;-76
2022/06/09 00:33:29;;;;;;;24.63;9.27;;;;;;;14.71;89.06;100746.53;10417780;28;20401;-77
2022/06/09 00:38:31;;;;;;;17.25;8.20;;;;;;;14.68;88.99;100754.28;10418869;28;20041;-77
2022/06/09 00:43:33;;;;;;;17.88;8.52;;;;;;;14.51;88.79;100754.16;10421512;28;20540;-76
2022/06/09 00:48:48;;;;;;;23.02;8.30;;;;;;;14.48;88.94;100756.72;10418003;28;20053;-76
2022/06/09 00:53:53;;;;;;;18.95;8.05;;;;;;;14.37;88.16;100760.94;10415396;28;20034;-78
2022/06/09 00:58:58;;;;;;;14.43;7.03;;;;;;;14.21;88.83;100766.00;10412926;28;20053;-76
2022/06/09 01:04:06;;;;;;;16.80;7.07;;;;;;;14.12;89.04;100760.72;10418322;28;20041;-77
2022/06/09 01:09:34;;;;;;;16.40;6.72;;;;;;;13.99;89.15;100761.47;10417896;28;20449;-78
2022/06/09 01:14:36;;;;;;;21.98;6.93;;;;;;;14.09;89.24;100768.50;10402983;28;20048;-78
2022/06/09 01:19:57;;;;;;;19.10;6.07;;;;;;;14.02;89.01;100774.47;10418503;28;20057;-79
2022/06/09 01:25:28;;;;;;;13.98;5.72;;;;;;;14.16;88.95;100783.25;10412416;28;20045;-78
2022/06/09 01:30:51;;;;;;;20.55;6.25;;;;;;;14.00;89.09;100786.53;10413427;28;20057;-78
2022/06/09 01:36:12;;;;;;;20.20;5.32;;;;;;;13.94;89.08;100798.56;10417918;28;20079;-78
2022/06/09 01:41:16;;;;;;;16.75;5.53;;;;;;;13.86;89.33;100805.38;10417568;28;20049;-77
2022/06/09 01:46:35;;;;;;;22.27;5.80;;;;;;;13.97;88.79;100802.91;10432669;28;20041;-78
2022/06/09 01:51:41;;;;;;;18.33;5.68;;;;;;;13.70;89.60;100804.34;10415753;28;20045;-78
2022/06/09 01:57:21;;;;;;;14.55;5.20;;;;;;;13.66;89.52;100812.06;10416852;28;20443;-79
2022/06/09 02:02:51;;;;;;;19.98;6.47;;;;;;;13.68;90.41;100820.69;10394993;28;20061;-79
2022/06/09 02:07:57;;;;;;;21.13;5.57;;;;;;;13.77;89.71;100823.41;10407680;28;20038;-78
2022/06/09 02:13:03;;;;;;;23.40;6.20;;;;;;;13.76;90.13;100834.59;10415222;28;20084;-77
2022/06/09 02:18:09;;;;;;;19.42;6.07;;;;;;;13.72;90.25;100832.84;10416268;28;20127;-78
2022/06/09 02:23:14;;;;;;;22.20;6.70;;;;;;;13.93;90.29;100842.56;10414703;28;20057;-78
2022/06/09 02:28:16;;;;;;;20.08;6.50;;;;;;;13.96;89.45;100843.47;10409455;28;20485;-79
2022/06/09 02:33:19;;;;;;;19.88;6.70;;;;;;;14.04;89.25;100853.03;10410190;28;20580;-79
2022/06/09 02:38:21;;;;;;;21.88;6.72;;;;;;;13.93;89.33;100855.50;10405064;28;20038;-78
2022/06/09 02:43:24;;;;;;;19.33;6.38;;;;;;;13.86;90.15;100845.94;10408645;28;20049;-78
2022/06/09 02:48:27;;;;;;;14.88;6.22;;;;;;;13.94;89.07;100865.91;10409631;28;20049;-78
2022/06/09 02:53:30;;;;;;;22.95;7.40;;;;;;;13.85;90.07;100870.13;10409785;28;20049;-78
2022/06/09 02:58:31;;;;;;;21.05;6.60;;;;;;;13.68;90.60;100873.38;10407313;28;20053;-78
2022/06/09 03:03:33;;;;;;;24.48;6.97;;;;;;;13.75;90.05;100874.28;10392005;28;20056;-79
2022/06/09 03:08:35;;;;;;;18.10;6.70;;;;;;;13.56;90.77;100884.44;10407998;28;20051;-79
2022/06/09 03:13:41;;;;;;;22.30;7.20;;;;;;;13.62;90.23;100888.81;10407662;28;20037;-78
2022/06/09 03:18:44;;;;;;;17.25;6.70;;;;;;;13.66;90.18;100889.72;10403759;28;20045;-78
2022/06/09 03:23:46;;;;;;;24.13;8.35;;;;;;;13.45;90.46;100888.56;10411229;28;20455;-78
2022/06/09 03:28:47;;;;;;;15.50;6.88;;;;;;;13.67;89.70;100901.81;10407137;28;20049;-79
2022/06/09 03:33:49;;;;;;;16.95;7.22;;;;;;;13.57;90.07;100912.06;10405999;28;20053;-78
2022/06/09 03:38:51;;;;;;;21.35;6.97;;;;;;;13.51;89.79;100919.75;10405138;28;20064;-78
2022/06/09 03:43:52;;;;;;;20.58;8.02;;;;;;;13.56;89.78;100924.97;10397496;28;20096;-78
2022/06/09 03:48:54;;;;;;;22.65;7.93;;;;;;;13.51;89.62;100921.44;10400867;28;20124;-79
2022/06/09 03:53:56;;;;;;;19.85;7.35;;;;;;;13.46;89.93;100918.78;10399606;28;20512;-79
2022/06/09 03:58:57;;;;;;;24.63;7.80;;;;;;;13.75;89.08;100932.16;10405195;28;20496;-78
2022/06/09 04:03:59;;;;;;;23.52;7.40;;;;;;;13.77;89.02;100929.56;10392307;28;20142;-78
2022/06/09 04:09:00;;;;;;;21.85;7.93;;;;;;;13.74;88.83;100940.75;10401914;28;20042;-79
2022/06/09 04:14:03;;;;;;;20.77;7.80;;;;;;;13.85;88.65;100943.50;10402179;28;20073;-78
2022/06/09 04:19:10;;;;;;;17.70;7.28;;;;;;;13.85;88.47;100943.50;10404857;28;20060;-79
2022/06/09 04:24:12;;;;;;;18.60;7.75;;;;;;;13.78;88.70;100952.03;10409263;28;20472;-78
2022/06/09 04:29:14;;;;;;;20.58;6.95;;;;;;;13.82;88.38;100951.19;10414790;28;20071;-79
2022/06/09 04:34:15;;;;;;;17.67;7.38;;;;;;;14.00;87.63;100953.16;10414724;28;20471;-78
2022/06/09 04:39:17;;;;;;;19.48;7.03;;;;;;;14.02;87.68;100950.59;10413962;28;20042;-78
2022/06/09 04:44:19;;;;;;;20.17;6.70;;;;;;;14.00;88.03;100962.66;10412357;28;20099;-79
2022/06/09 04:49:20;;;;;;;22.10;6.85;;;;;;;14.07;87.60;100969.66;10407724;28;20448;-78
2022/06/09 04:54:22;;;;;;;22.77;7.65;;;;;;;14.18;87.67;100974.97;10412565;28;20041;-78
2022/06/09 04:59:25;;;;;;;23.00;7.28;;;;;;;14.21;87.53;100983.66;10404457;28;20117;-79
2022/06/09 05:04:27;;;;;;;24.17;7.40;;;;;;;14.27;87.81;100981.13;10389788;28;20498;-79
2022/06/09 05:09:29;;;;;;;26.10;7.30;;;;;;;14.50;87.69;100990.91;10407177;28;20136;-78
2022/06/09 05:14:31;;;;;;;29.95;7.65;;;;;;;14.47;87.45;101001.25;10411369;28;20061;-78
2022/06/09 05:19:33;;;;;;;31.45;7.07;;;;;;;14.77;87.47;100999.88;10403901;28;20046;-79
2022/06/09 05:24:34;;;;;;;18.50;6.93;;;;;;;14.77;87.36;100999.88;10413541;28;20107;-78
2022/06/09 05:29:36;;;;;;;17.02;6.80;;;;;;;14.82;87.14;101012.88;10414111;28;20049;-79
2022/06/09 05:34:37;;;;;;;19.10;7.10;;;;;;;15.19;86.46;101018.41;10411571;28;20060;-78
2022/06/09 05:45:05;;;;;;;14.80;6.20;;;;;;;15.36;85.01;101034.13;10412552;28;20128;-78
2022/06/09 05:50:09;;;;;;;15.80;6.28;;;;;;;15.45;84.58;101036.78;10411612;28;20469;-77
2022/06/09 05:55:10;;;;;;;17.50;6.07;;;;;;;15.71;84.76;101049.97;10406164;28;20041;-78
2022/06/09 06:00:16;;;;;;;18.45;5.72;;;;;;;15.68;84.42;101059.44;10411440;28;20081;-77
2022/06/09 06:10:38;;;;;;;14.80;5.13;;;;;;;15.93;83.18;101080.44;10409695;28;20469;-79
2022/06/09 06:15:40;;;;;;;12.80;5.35;;;;;;;16.09;82.14;101087.50;10411001;28;20115;-78
2022/06/09 06:20:41;;;;;;;13.32;4.90;;;;;;;16.25;81.75;101103.19;10409350;28;20049;-77
2022/06/09 06:25:43;;;;;;;12.23;4.45;;;;;;;16.22;80.78;101114.44;10409403;28;20076;-77
2022/06/09 06:30:45;;;;;;;16.92;4.90;;;;;;;16.32;80.42;101115.34;10413729;28;20432;-78
2022/06/09 06:35:46;;;;;;;11.15;4.47;;;;;;;16.43;79.92;101124.06;10410214;28;20049;-77
2022/06/09 06:40:48;;;;;;;11.68;3.70;;;;;;;16.54;78.91;101126.72;10408004;28;20049;-78
2022/06/09 06:45:51;;;;;;;10.02;3.67;;;;;;;16.68;77.58;101132.00;10405784;28;20078;-77
2022/06/09 06:50:53;;;;;;;13.55;4.07;;;;;;;17.15;77.36;101145.19;10402676;28;20052;-77
2022/06/09 06:55:55;;;;;;;11.38;3.60;;;;;;;17.69;75.40;101133.09;10410243;28;20045;-76
2022/06/09 07:00:58;;;;;;;8.27;3.03;;;;;;;17.66;73.87;101140.94;10406450;28;20511;-77
2022/06/09 07:06:01;;;;;;;8.45;2.60;;;;;;;17.69;72.34;101146.13;10407907;28;20037;-76
2022/06/09 07:11:04;;;;;;;8.80;2.72;;;;;;;18.05;71.46;101147.03;10405765;28;20512;-77
2022/06/09 07:16:06;;;;;;;6.10;2.10;;;;;;;18.21;71.41;101149.59;10405930;28;20056;-78
2022/06/09 07:21:24;;;;;;;7.97;2.80;;;;;;;18.26;69.77;101163.50;10406021;28;20041;-77
2022/06/09 07:26:26;;;;;;;6.20;2.20;;;;;;;18.58;70.42;101172.97;10399292;28;20092;-77
2022/06/09 07:31:29;;;;;;;6.50;2.30;;;;;;;18.58;67.82;101170.38;10407545;28;20052;-76
2022/06/09 07:36:31;;;;;;;5.50;1.73;;;;;;;18.46;69.74;101173.00;10405053;28;20037;-76
2022/06/09 07:41:33;;;;;;;7.05;2.45;;;;;;;18.62;68.23;101179.03;10398549;28;20333;-76
2022/06/09 07:46:36;;;;;;;7.75;2.03;;;;;;;19.12;67.34;101180.63;10402849;28;20041;-77
2022/06/09 07:51:38;;;;;;;5.63;2.30;;;;;;;19.65;67.01;101188.16;10400271;28;20564;-76
2022/06/09 07:56:47;;;;;;;4.20;1.67;;;;;;;19.22;66.88;101186.66;10411666;28;20057;-76
2022/06/09 08:01:52;;;;;;;3.35;1.45;;;;;;;19.27;66.00;101197.09;10407741;28;20050;-76
2022/06/09 08:07:02;;;;;;;;;;;;;;;19.65;65.11;101199.47;10414279;28;20100;-76
2022/06/09 08:12:06;;;;;;;6.03;2.20;;;;;;;19.23;68.20;101196.25;10411296;28;20008;-76
2022/06/09 08:17:09;;;;;;;7.78;2.10;;;;;;;19.16;67.56;101210.22;10409006;28;20049;-75
2022/06/09 08:22:11;;;;;;;7.22;2.30;;;;;;;18.81;68.03;101216.41;10415360;28;20398;-76
2022/06/09 08:27:13;;;;;;;6.25;2.35;;;;;;;18.64;69.36;101229.50;10416576;28;20046;-76
2022/06/09 08:32:14;;;;;;;6.03;2.35;;;;;;;19.57;65.90;101240.44;10415476;28;20050;-76
2022/06/09 08:37:16;;;;;;;3.67;1.80;;;;;;;20.07;65.16;101234.91;10415839;28;20079;-75
2022/06/09 08:42:17;;;;;;;5.57;1.90;;;;;;;20.02;64.99;101236.69;10415700;28;20543;-77
2022/06/09 08:47:35;;;;;;;6.45;2.58;;;;;;;19.88;63.37;101255.97;10413864;28;20045;-76
2022/06/09 08:52:52;;;;;;;3.53;2.15;;;;;;;19.72;63.31;101255.19;10414128;28;20328;-76
2022/06/09 08:58:04;;;;;;;4.20;2.38;;;;;;;20.19;62.49;101257.47;10411498;28;20057;-76
2022/06/09 09:03:19;;;;;;;5.63;2.40;;;;;;;20.28;62.38;101262.63;10411225;28;20596;-75
2022/06/09 09:08:26;;;;;;;4.28;2.67;;;;;;;20.99;59.89;101258.44;10413966;28;20112;-76
2022/06/09 09:13:50;;;;;;;3.28;1.92;;;;;;;21.23;57.92;101263.41;10408036;28;20069;-75
2022/06/09 09:19:09;;;;;;;5.18;2.40;;;;;;;20.97;57.06;101270.69;10408488;28;20042;-76
2022/06/09 09:24:17;;;;;;;5.28;2.50;;;;;;;20.80;60.14;101269.16;10413932;28;20049;-76
2022/06/09 09:29:30;;;;;;;5.60;2.50;;;;;;;19.16;66.05;101280.72;10414394;28;20091;-76
2022/06/09 09:34:38;;;;;;;5.82;2.58;;;;;;;19.53;68.35;101280.56;10413332;28;20049;-76
2022/06/09 09:39:49;;;;;;;9.85;2.90;;;;;;;19.41;68.69;101288.44;10413791;28;20053;-75
2022/06/09 09:45:13;;;;;;;3.88;1.40;;;;;;;17.89;64.96;101312.09;10413529;28;20475;-76
2022/06/09 09:50:50;;;;;;;4.00;1.65;;;;;;;17.20;69.58;101330.91;10413493;28;20041;-75
2022/06/09 09:55:57;;;;;;;5.55;1.83;;;;;;;17.18;69.68;101332.63;10369116;28;20058;-75
2022/06/09 10:01:21;;;;;;;2.08;1.70;;;;;;;17.04;69.68;101350.81;10408549;28;20052;-76
2022/06/09 10:12:34;;;;;;;4.25;2.53;;;;;;;17.62;71.34;101359.75;10408126;28;20471;-76
2022/06/09 10:18:07;;;;;;;4.35;2.85;;;;;;;18.52;70.18;101353.91;10412118;28;20075;-76
2022/06/09 10:23:56;;;;;;;7.03;3.42;;;;;;;20.51;66.78;101350.53;10408696;28;20045;-75
2022/06/09 10:29:25;;;;;;;8.77;4.38;;;;;;;20.76;68.14;101340.75;10402518;28;20096;-75
2022/06/09 10:35:06;;;;;;;5.82;3.25;;;;;;;20.34;66.24;101358.53;10411157;28;20049;-75
2022/06/09 10:40:20;;;;;;;;;;;;;;;19.72;62.79;101375.44;10416770;28;20045;-75
2022/06/09 10:45:53;;;;;;;6.05;3.92;;;;;;;20.24;62.22;101371.66;10412228;28;19929;-76
2022/06/09 10:56:53;;;;;;;4.13;1.65;;;;;;;18.51;62.34;101401.72;10389225;28;20518;-75
2022/06/09 11:01:57;;;;;;;6.38;1.77;;;;;;;18.67;63.39;101407.81;10411096;28;20559;-75
2022/06/09 11:07:12;;;;;;;4.00;2.10;;;;;;;18.92;62.59;101417.41;10410341;28;20046;-76
2022/06/09 11:12:49;;;;;;;7.45;2.22;;;;;;;19.22;61.68;101419.13;10407850;28;20076;-76
2022/06/09 11:18:01;;;;;;;7.43;3.03;;;;;;;19.26;61.40;101417.38;10409963;28;20052;-76
2022/06/09 11:23:21;;;;;;;5.82;2.83;;;;;;;20.65;62.28;101406.25;10411928;28;20053;-76
2022/06/09 11:28:56;;;;;;;11.45;2.63;;;;;;;20.18;63.83;101421.41;10410627;28;20436;-76
2022/06/09 11:34:29;;;;;;;5.40;1.98;;;;;;;19.42;62.54;101433.88;10411938;28;20083;-76
2022/06/09 11:39:39;;;;;;;2.08;1.23;;;;;;;18.16;62.41;101438.19;10415306;28;20063;-77
2022/06/09 11:44:43;;;;;;;3.42;1.45;;;;;;;17.80;65.98;101452.78;10406390;28;20045;-77
2022/06/09 11:49:50;;;;;;;3.03;1.70;;;;;;;17.48;69.30;101453.47;10408546;28;20049;-76
2022/06/09 11:55:01;;;;;;;3.53;1.83;;;;;;;18.00;68.04;101474.63;10416598;28;20054;-75
2022/06/09 12:00:26;;;;;;;5.43;2.60;;;;;;;17.86;68.58;101479.75;10407354;28;20053;-76
2022/06/09 12:05:36;;;;;;;4.90;2.85;;;;;;;18.27;68.45;101473.00;10409330;28;20045;-75
2022/06/09 12:10:56;;;;;;;7.03;2.50;;;;;;;17.76;69.07;101471.00;10428090;28;20369;-77
2022/06/09 12:16:21;;;;;;;3.72;2.60;;;;;;;17.82;70.11;101477.13;10413394;28;20092;-75
2022/06/09 12:21:34;;;;;;;4.88;2.58;;;;;;;17.73;70.56;101478.81;10409207;28;20088;-77
2022/06/09 12:26:44;;;;;;;5.90;2.85;;;;;;;18.41;68.55;101478.22;10405076;28;20393;-76
2022/06/09 12:32:08;;;;;;;7.15;3.38;;;;;;;18.79;67.13;101481.78;10405018;28;20049;-76
2022/06/09 12:37:22;;;;;;;5.72;3.20;;;;;;;18.47;68.23;101490.44;10407073;28;20049;-75
2022/06/09 12:42:27;;;;;;;8.48;3.00;;;;;;;18.82;68.89;101495.72;10412456;28;20071;-75
2022/06/09 12:47:28;;;;;;;6.53;3.30;;;;;;;19.31;68.59;101491.38;10430644;28;20037;-76
2022/06/09 12:52:40;;;;;;;5.82;3.35;;;;;;;19.65;66.63;101507.03;10412004;28;20041;-75
2022/06/09 12:57:47;;;;;;;7.47;3.75;;;;;;;19.68;66.20;101508.75;10417141;28;20072;-75
2022/06/09 13:02:49;;;;;;;8.38;3.92;;;;;;;20.03;66.01;101515.66;10409691;28;20404;-76
2022/06/09 13:07:56;;;;;;;4.93;3.03;;;;;;;19.99;64.67;101516.56;10415210;28;20049;-74
2022/06/09 13:13:27;;;;;;;5.40;1.60;;;;;;;20.37;56.56;101515.50;10416508;28;20049;-76
2022/06/09 13:18:47;;;;;;;11.52;1.80;;;;;;;20.09;52.57;101528.69;10412218;28;20033;-75
2022/06/09 13:23:56;;;;;;;6.53;1.83;;;;;;;19.71;53.92;101534.88;10415021;28;20416;-76
2022/06/09 13:29:35;;;;;;;7.15;1.70;;;;;;;20.12;52.15;101528.69;10410782;28;20048;-75
2022/06/09 13:34:44;;;;;;;7.43;1.53;;;;;;;20.48;51.36;101524.16;10395804;28;20053;-75
2022/06/09 13:39:53;;;;;;;5.20;1.55;;;;;;;20.01;52.86;101540.94;10416804;28;20404;-75
2022/06/09 13:44:55;;;;;;;;;;;;;;;20.77;53.24;101536.25;10416211;28;20504;-76
2022/06/09 13:50:12;;;;;;;6.80;1.40;;;;;;;20.28;52.46;101543.47;10414389;28;20365;-75
2022/06/09 13:55:20;;;;;;;3.20;1.25;;;;;;;20.53;52.03;101545.94;10413060;28;20459;-75
2022/06/09 14:00:25;;;;;;;8.18;1.80;;;;;;;20.13;53.61;101564.44;10406624;28;20447;-74
2022/06/09 14:05:28;;;;;;;5.38;1.23;;;;;;;19.86;53.15;101579.31;10425766;28;20049;-75
2022/06/09 14:10:31;;;;;;;3.67;0.98;;;;;;;19.75;51.73;101579.31;10410352;28;20052;-75
2022/06/09 14:15:34;;;;;;;4.03;1.20;;;;;;;20.82;50.27;101573.72;10411455;28;20053;-74
2022/06/09 14:20:37;;;;;;;7.70;1.30;;;;;;;21.21;48.46;101579.59;10411989;28;20100;-75
2022/06/09 14:25:39;;;;;;;6.35;1.38;;;;;;;20.54;49.57;101580.84;10409699;28;20088;-75
2022/06/09 14:30:43;;;;;;;3.95;1.05;;;;;;;20.39;52.78;101587.00;10389152;28;20459;-75
2022/06/09 14:35:45;;;;;;;9.93;1.30;;;;;;;20.30;50.80;101598.41;10410761;28;20045;-76
2022/06/09 14:40:54;;;;;;;5.68;1.17;;;;;;;20.26;52.25;101594.94;10401453;28;20519;-76
2022/06/09 14:45:57;;;;;;;;;;;;;;;20.65;50.14;101612.22;10413048;28;20042;-76
2022/06/09 14:50:59;;;;;;;3.85;1.40;;;;;;;21.71;48.98;101606.28;10410902;28;20380;-74
2022/06/09 14:56:01;;;;;;;5.50;1.38;;;;;;;21.53;47.66;101607.28;10413070;28;20030;-75
2022/06/09 15:01:07;;;;;;;5.68;1.10;;;;;;;21.46;46.89;101616.09;10411552;28;20041;-75
2022/06/09 15:06:11;;;;;;;5.70;1.40;;;;;;;21.69;48.48;101612.44;10410132;28;20286;-76
2022/06/09 15:11:18;;;;;;;2.85;0.93;;;;;;;21.13;46.39;101627.69;10412223;28;20096;-75
2022/06/09 15:16:20;;;;;;;5.78;1.35;;;;;;;20.89;47.95;101635.66;10410917;28;20038;-75
2022/06/09 15:21:44;;;;;;;4.30;1.27;;;;;;;20.51;45.90;101649.81;10406631;28;20128;-76
2022/06/09 15:26:46;;;;;;;2.97;1.15;;;;;;;20.48;46.64;101649.81;10412392;28;20045;-75
2022/06/09 15:31:48;;;;;;;4.70;1.50;;;;;;;20.55;48.27;101648.91;10410676;28;20098;-75
2022/06/09 15:36:51;;;;;;;6.88;1.70;;;;;;;20.80;47.97;101651.47;10411063;28;20084;-76
2022/06/09 15:41:53;;;;;;;5.38;1.20;;;;;;;20.91;46.55;101651.41;10410593;28;20055;-76
2022/06/09 15:46:55;;;;;;;5.10;1.20;;;;;;;21.22;47.51;101649.47;10411483;28;20432;-75
2022/06/09 15:52:05;;;;;;;4.80;1.20;;;;;;;20.56;47.16;101666.34;10405980;28;20045;-76
2022/06/09 15:57:07;;;;;;;5.68;1.33;;;;;;;20.57;48.04;101662.88;10392546;28;20490;-76
2022/06/09 16:02:09;;;;;;;4.68;1.10;;;;;;;20.62;46.33;101662.84;10410871;28;20485;-76
2022/06/09 16:07:15;;;;;;;6.70;1.02;;;;;;;20.53;48.28;101670.72;10407184;28;20054;-76
2022/06/09 16:12:17;;;;;;;8.30;1.60;;;;;;;20.98;48.17;101665.31;10426283;28;20440;-75
2022/06/09 16:17:18;;;;;;;5.30;1.10;;;;;;;20.68;49.28;101661.94;10411130;28;20038;-75
2022/06/09 16:22:20;;;;;;;6.50;1.40;;;;;;;20.86;46.06;101667.13;10415260;28;20049;-76
2022/06/09 16:27:21;;;;;;;8.32;1.52;;;;;;;21.21;46.99;101662.59;10419034;28;20119;-76
2022/06/09 16:32:23;;;;;;;5.93;1.20;;;;;;;21.03;46.03;101674.91;10419669;28;20049;-75
2022/06/09 16:37:25;;;;;;;4.88;1.50;;;;;;;20.99;48.84;101685.41;10416382;28;20049;-76
2022/06/09 16:42:32;;;;;;;6.63;1.30;;;;;;;20.66;48.11;101687.28;10417147;28;20046;-75
2022/06/09 16:47:39;;;;;;;7.13;1.65;;;;;;;20.43;48.04;101698.69;10417255;28;20449;-75
2022/06/09 16:52:40;;;;;;;4.45;1.27;;;;;;;21.04;49.23;101691.47;10417539;28;20033;-75
2022/06/09 16:57:43;;;;;;;6.75;1.50;;;;;;;20.75;51.11;101701.22;10407781;28;20496;-76
2022/06/09 17:02:45;;;;;;;6.13;1.40;;;;;;;20.59;51.90;101705.59;10416019;28;20053;-76
2022/06/09 17:07:50;;;;;;;5.15;1.17;;;;;;;20.99;52.37;101707.25;10415505;28;20037;-76
2022/06/09 17:12:57;;;;;;;5.32;1.08;;;;;;;20.58;48.06;101716.06;10416329;28;20046;-76
2022/06/09 17:17:59;;;;;;;2.95;1.13;;;;;;;20.34;49.12;101719.63;10413937;28;20384;-76
2022/06/09 17:23:03;;;;;;;5.03;1.42;;;;;;;20.69;49.52;101718.66;10415199;28;20049;-75
2022/06/09 17:28:06;;;;;;;6.70;1.70;;;;;;;20.72;50.02;101726.50;10414181;28;20033;-76
2022/06/09 17:33:09;;;;;;;4.30;1.08;;;;;;;20.43;46.64;101733.56;10414897;28;20045;-76
2022/06/09 17:38:12;;;;;;;7.18;1.90;;;;;;;20.16;49.77;101739.69;10415852;28;20037;-75
2022/06/09 17:43:14;;;;;;;4.97;1.33;;;;;;;20.02;51.19;101744.06;10415748;28;20064;-75
2022/06/09 17:48:16;;;;;;;5.60;1.52;;;;;;;20.20;49.34;101754.53;10414289;28;20072;-75
2022/06/09 17:53:18;;;;;;;4.65;1.25;;;;;;;19.94;51.17;101757.16;10409466;28;20049;-76
2022/06/09 17:58:28;;;;;;;4.95;1.30;;;;;;;19.85;52.89;101758.00;10413012;28;20045;-75
2022/06/09 18:03:30;;;;;;;4.78;1.40;;;;;;;20.08;52.60;101763.25;10412107;28;20053;-76
2022/06/09 18:08:35;;;;;;;3.47;1.20;;;;;;;20.16;51.09;101762.38;10414558;28;20049;-76
2022/06/09 18:13:37;;;;;;;7.95;1.50;;;;;;;19.88;49.50;101763.25;10408380;28;20546;-75
2022/06/09 18:18:39;;;;;;;6.90;1.35;;;;;;;19.89;49.35;101775.44;10413487;28;20127;-75
2022/06/09 18:23:41;;;;;;;4.00;1.20;;;;;;;19.75;50.95;101775.38;10414145;28;20045;-76
2022/06/09 18:28:43;;;;;;;11.70;1.83;;;;;;;19.51;50.87;101778.84;10413982;28;20405;-76
2022/06/09 18:33:46;;;;;;;3.85;1.23;;;;;;;19.30;50.39;101783.13;10412347;28;20037;-76
2022/06/09 18:38:47;;;;;;;6.93;1.30;;;;;;;19.05;51.61;101791.72;10412348;28;20459;-76
2022/06/09 18:43:51;;;;;;;4.35;1.27;;;;;;;19.08;53.13;101789.13;10412349;28;20164;-76
2022/06/09 18:48:53;;;;;;;6.55;1.50;;;;;;;18.99;53.48;101793.44;10409678;28;20054;-76
2022/06/09 18:53:55;;;;;;;5.60;1.30;;;;;;;18.98;52.25;101803.88;10415495;28;20111;-76
2022/06/09 18:58:58;;;;;;;5.40;1.55;;;;;;;18.74;56.12;101807.16;10427357;28;20132;-76
2022/06/09 19:03:59;;;;;;;7.40;1.73;;;;;;;18.64;57.39;101814.06;10417280;28;20528;-76
2022/06/09 19:09:01;;;;;;;5.97;1.40;;;;;;;18.60;58.38;101821.00;10415123;28;20112;-75
2022/06/09 19:14:07;;;;;;;3.33;1.38;;;;;;;18.30;56.95;101825.13;10412981;28;20570;-76
2022/06/09 19:19:09;;;;;;;4.43;1.27;;;;;;;18.11;57.65;101823.22;10412087;28;20052;-76
2022/06/09 19:24:11;;;;;;;7.45;1.63;;;;;;;17.85;59.64;101840.31;10411897;28;20100;-75
2022/06/09 19:29:15;;;;;;;3.30;1.25;;;;;;;17.82;56.73;101847.22;10404767;28;20052;-75
2022/06/09 19:34:18;;;;;;;4.32;1.10;;;;;;;17.75;57.07;101852.38;10408766;28;20045;-76
2022/06/09 19:39:20;;;;;;;4.18;1.30;;;;;;;17.58;57.17;101861.72;10411765;28;20045;-76
2022/06/09 19:44:22;;;;;;;3.45;1.17;;;;;;;17.30;57.57;101866.59;10411671;28;20037;-76
2022/06/09 19:49:23;;;;;;;6.10;1.55;;;;;;;17.15;59.93;101874.19;10409408;28;20103;-76
2022/06/09 19:54:27;;;;;;;5.20;1.70;;;;;;;16.93;60.18;101879.94;10411193;28;20053;-76
2022/06/09 19:59:29;;;;;;;4.57;1.40;;;;;;;16.85;59.68;101881.53;10420989;28;20033;-76
2022/06/09 20:04:31;;;;;;;6.03;1.92;;;;;;;16.73;60.20;101887.41;10419249;28;20512;-76
2022/06/09 20:09:32;;;;;;;4.13;1.85;;;;;;;16.52;61.12;101897.47;10418759;28;20085;-76
2022/06/09 20:14:35;;;;;;;4.88;1.90;;;;;;;16.34;63.15;101904.09;10417303;28;20104;-76
2022/06/09 20:19:37;;;;;;;13.57;1.95;;;;;;;16.03;60.92;101919.13;10418376;28;20120;-76
2022/06/09 20:24:43;;;;;;;5.22;1.98;;;;;;;16.00;64.76;101919.06;10417939;28;20080;-76
2022/06/09 20:29:46;;;;;;;4.65;1.85;;;;;;;15.69;64.95;101933.97;10415003;28;20515;-75
2022/06/09 20:34:48;;;;;;;7.72;2.10;;;;;;;15.68;65.02;101937.41;10418883;28;20053;-76
2022/06/09 20:39:51;;;;;;;9.90;2.10;;;;;;;15.48;64.40;101932.69;10419803;28;20037;-76
2022/06/09 20:44:58;;;;;;;6.50;2.15;;;;;;;15.38;64.36;101938.50;10438370;28;20045;-76
2022/06/09 20:50:08;;;;;;;6.68;2.03;;;;;;;15.18;65.50;101941.53;10429177;28;20042;-77
2022/06/09 20:55:13;;;;;;;;;;;;;;;14.92;65.89;101946.09;10440014;28;20554;-76
2022/06/09 21:00:15;;;;;;;3.70;2.10;;;;;;;14.80;65.56;101944.06;10438713;28;19929;-76
2022/06/09 21:05:20;;;;;;;6.93;2.22;;;;;;;14.73;66.86;101942.16;10437352;28;20045;-77
2022/06/09 21:21:03;;;;;;;5.38;2.00;;;;;;;14.16;68.49;101962.25;10441442;28;20051;-76
2022/06/09 21:26:05;;;;;;;7.05;2.33;;;;;;;14.12;67.92;101963.88;10440531;28;20068;-76
2022/06/09 21:31:09;;;;;;;6.47;2.10;;;;;;;14.09;68.38;101962.91;10436854;28;20072;-76
2022/06/09 21:36:38;;;;;;;6.30;2.38;;;;;;;13.98;68.89;101966.88;10439531;28;20033;-76
2022/06/09 21:41:39;;;;;;;4.68;2.35;;;;;;;13.76;71.07;101984.38;10437106;28;20045;-76
2022/06/09 21:46:41;;;;;;;7.43;2.28;;;;;;;13.78;69.18;101974.97;10420487;28;20390;-76
2022/06/09 21:51:43;;;;;;;9.13;2.38;;;;;;;13.40;71.46;101975.56;10412317;28;20045;-77
2022/06/09 21:56:44;;;;;;;7.85;2.30;;;;;;;13.27;72.09;101978.53;10416227;28;20076;-77
2022/06/09 22:01:46;;;;;;;6.63;2.50;;;;;;;13.27;72.41;101984.59;10415437;28;20057;-76
2022/06/09 22:06:48;;;;;;;7.70;3.50;;;;;;;13.11;72.51;101982.34;10408300;28;20045;-76
2022/06/09 22:11:49;;;;;;;5.57;2.50;;;;;;;13.13;73.40;101980.69;10427152;28;20073;-76
2022/06/09 22:16:52;;;;;;;7.07;2.90;;;;;;;13.03;73.26;101984.66;10414870;28;20508;-76
2022/06/09 22:21:54;;;;;;;5.82;2.65;;;;;;;12.96;74.36;101990.44;10408078;28;20128;-76
2022/06/09 22:26:55;;;;;;;11.77;3.42;;;;;;;12.95;73.55;101992.19;10429470;28;20053;-76
2022/06/09 22:31:57;;;;;;;6.30;3.65;;;;;;;12.77;74.31;101982.09;10415277;28;20054;-76
2022/06/09 22:36:59;;;;;;;8.00;3.63;;;;;;;12.69;75.28;101984.44;10414799;28;20053;-76
2022/06/09 22:42:00;;;;;;;5.25;3.33;;;;;;;12.62;75.80;101995.34;10413517;28;20052;-75
2022/06/09 22:47:03;;;;;;;5.10;3.13;;;;;;;12.58;76.13;102000.38;10414362;28;20412;-77
2022/06/09 22:52:05;;;;;;;4.40;3.15;;;;;;;12.48;76.32;101993.97;10414122;28;20049;-76
2022/06/09 22:57:09;;;;;;;9.50;3.50;;;;;;;12.38;76.65;101997.94;10414289;28;20045;-75
2022/06/09 23:02:11;;;;;;;8.18;3.80;;;;;;;12.45;76.04;102009.41;10413722;28;20493;-75
2022/06/09 23:07:12;;;;;;;9.52;3.70;;;;;;;12.39;77.15;102010.06;10414107;28;20042;-76
2022/06/09 23:12:14;;;;;;;5.75;3.60;;;;;;;12.31;76.82;102012.38;10412973;28;20045;-76
2022/06/09 23:17:17;;;;;;;9.48;3.60;;;;;;;12.19;77.62;102017.06;10412142;28;20053;-76
2022/06/09 23:22:18;;;;;;;7.82;3.70;;;;;;;12.11;78.32;102021.97;10411369;28;20045;-75
2022/06/09 23:27:22;;;;;;;6.88;3.90;;;;;;;12.08;78.87;102026.13;10411339;28;20045;-76
2022/06/09 23:32:24;;;;;;;8.02;3.47;;;;;;;12.05;79.67;102034.66;10412033;28;20045;-76
2022/06/09 23:37:38;;;;;;;5.57;3.70;;;;;;;12.09;77.99;102031.34;10412297;28;20043;-76
2022/06/09 23:42:40;;;;;;;6.63;3.13;;;;;;;11.99;78.06;102030.13;10411936;28;20045;-76
2022/06/09 23:47:42;;;;;;;7.60;3.50;;;;;;;11.94;78.30;102031.63;10412245;28;20478;-76
2022/06/09 23:52:45;;;;;;;10.73;3.85;;;;;;;11.73;78.84;102034.25;10412053;28;20136;-77
2022/06/09 23:57:48;;;;;;;7.68;3.90;;;;;;;11.81;79.32;102040.59;10409721;28;20037;-76
